sensor_id;sensor_type;location;lat;lon;timestamp;pressure;altitude;pressure_sealevel;temperature;humidity
51460;BME280;37534;39.772;2.718;2024-02-21T00:01:35;102490.78;;;8.70;100.00
51460;BME280;37534;39.772;2.718;2024-02-21T00:04:01;102481.59;;;8.97;100.00
51460;BME280;37534;39.772;2.718;2024-02-21T00:06:26;102478.91;;;8.82;100.00
51460;BME280;37534;39.772;2.718;2024-02-21T00:08:52;102464.16;;;8.67;100.00
51460;BME280;37534;39.772;2.718;2024-02-21T00:11:17;102461.44;;;8.51;100.00
51460;BME280;37534;39.772;2.718;2024-02-21T00:13:43;102461.41;;;8.48;100.00
51460;BME280;37534;39.772;2.718;2024-02-21T00:16:08;102457.97;;;8.48;100.00
51460;BME280;37534;39.772;2.718;2024-02-21T00:18:34;102463.28;;;8.62;100.00
51460;BME280;37534;39.772;2.718;2024-02-21T00:20:59;102462.38;;;8.60;100.00
51460;BME280;37534;39.772;2.718;2024-02-21T00:23:27;102461.34;;;8.42;100.00
51460;BME280;37534;39.772;2.718;2024-02-21T00:25:53;102448.28;;;8.27;100.00
51460;BME280;37534;39.772;2.718;2024-02-21T00:28:19;102455.16;;;8.26;100.00
51460;BME280;37534;39.772;2.718;2024-02-21T00:30:45;102455.91;;;8.19;100.00
51460;BME280;37534;39.772;2.718;2024-02-21T00:33:13;102454.13;;;8.12;100.00
51460;BME280;37534;39.772;2.718;2024-02-21T00:35:39;102458.38;;;8.11;100.00
51460;BME280;37534;39.772;2.718;2024-02-21T00:38:04;102452.41;;;8.12;100.00
51460;BME280;37534;39.772;2.718;2024-02-21T00:40:30;102455.19;;;8.31;100.00
51460;BME280;37534;39.772;2.718;2024-02-21T00:42:56;102438.22;;;8.45;100.00
51460;BME280;37534;39.772;2.718;2024-02-21T00:45:21;102441.59;;;8.41;100.00
51460;BME280;37534;39.772;2.718;2024-02-21T00:47:47;102438.75;;;8.18;100.00
51460;BME280;37534;39.772;2.718;2024-02-21T00:50:12;102442.00;;;8.05;100.00
51460;BME280;37534;39.772;2.718;2024-02-21T00:52:38;102444.53;;;8.00;100.00
51460;BME280;37534;39.772;2.718;2024-02-21T00:55:04;102438.53;;;8.01;100.00
51460;BME280;37534;39.772;2.718;2024-02-21T00:57:30;102454.19;;;8.18;100.00
51460;BME280;37534;39.772;2.718;2024-02-21T00:59:55;102439.59;;;8.18;100.00
51460;BME280;37534;39.772;2.718;2024-02-21T01:02:21;102436.19;;;8.19;100.00
51460;BME280;37534;39.772;2.718;2024-02-21T01:04:46;102410.25;;;7.98;100.00
51460;BME280;37534;39.772;2.718;2024-02-21T01:07:12;102425.50;;;7.86;100.00
51460;BME280;37534;39.772;2.718;2024-02-21T01:09:37;102435.66;;;7.75;100.00
51460;BME280;37534;39.772;2.718;2024-02-21T01:12:03;102431.28;;;7.68;100.00
51460;BME280;37534;39.772;2.718;2024-02-21T01:14:28;102421.66;;;7.54;100.00
51460;BME280;37534;39.772;2.718;2024-02-21T01:16:54;102418.13;;;7.48;100.00
51460;BME280;37534;39.772;2.718;2024-02-21T01:19:19;102419.81;;;7.46;100.00
51460;BME280;37534;39.772;2.718;2024-02-21T01:21:45;102417.22;;;7.41;100.00
51460;BME280;37534;39.772;2.718;2024-02-21T01:24:10;102402.47;;;7.29;100.00
51460;BME280;37534;39.772;2.718;2024-02-21T01:26:36;102409.72;;;7.58;100.00
51460;BME280;37534;39.772;2.718;2024-02-21T01:29:01;102409.81;;;7.64;100.00
51460;BME280;37534;39.772;2.718;2024-02-21T01:31:27;102413.00;;;7.46;100.00
51460;BME280;37534;39.772;2.718;2024-02-21T01:33:52;102396.47;;;7.29;100.00
51460;BME280;37534;39.772;2.718;2024-02-21T01:36:18;102409.34;;;7.30;100.00
51460;BME280;37534;39.772;2.718;2024-02-21T01:38:43;102417.88;;;7.29;100.00
51460;BME280;37534;39.772;2.718;2024-02-21T01:41:09;102415.44;;;7.38;100.00
51460;BME280;37534;39.772;2.718;2024-02-21T01:43:34;102417.00;;;7.27;100.00
51460;BME280;37534;39.772;2.718;2024-02-21T01:46:00;102413.63;;;7.31;100.00
51460;BME280;37534;39.772;2.718;2024-02-21T01:48:26;102413.63;;;7.31;100.00
51460;BME280;37534;39.772;2.718;2024-02-21T01:50:54;102423.97;;;7.36;100.00
51460;BME280;37534;39.772;2.718;2024-02-21T01:53:23;102419.34;;;7.13;100.00
51460;BME280;37534;39.772;2.718;2024-02-21T01:55:50;102407.16;;;6.98;100.00
51460;BME280;37534;39.772;2.718;2024-02-21T01:58:16;102405.31;;;6.91;100.00
51460;BME280;37534;39.772;2.718;2024-02-21T02:00:43;102400.94;;;6.85;100.00
51460;BME280;37534;39.772;2.718;2024-02-21T02:03:11;102401.63;;;6.77;100.00
51460;BME280;37534;39.772;2.718;2024-02-21T02:05:46;102403.28;;;6.72;100.00
51460;BME280;37534;39.772;2.718;2024-02-21T02:08:13;102397.28;;;6.71;100.00
51460;BME280;37534;39.772;2.718;2024-02-21T02:10:40;102404.09;;;6.69;100.00
51460;BME280;37534;39.772;2.718;2024-02-21T02:13:05;102396.34;;;6.68;100.00
51460;BME280;37534;39.772;2.718;2024-02-21T02:15:39;102404.94;;;6.70;100.00
51460;BME280;37534;39.772;2.718;2024-02-21T02:18:04;102398.16;;;6.73;100.00
51460;BME280;37534;39.772;2.718;2024-02-21T02:20:30;102394.53;;;6.60;100.00
51460;BME280;37534;39.772;2.718;2024-02-21T02:22:57;102405.72;;;6.65;100.00
51460;BME280;37534;39.772;2.718;2024-02-21T02:25:23;102397.75;;;6.50;100.00
51460;BME280;37534;39.772;2.718;2024-02-21T02:27:49;102398.47;;;6.41;100.00
51460;BME280;37534;39.772;2.718;2024-02-21T02:30:14;102394.22;;;6.42;100.00
51460;BME280;37534;39.772;2.718;2024-02-21T02:32:44;102384.97;;;6.52;100.00
51460;BME280;37534;39.772;2.718;2024-02-21T02:35:10;102389.16;;;6.45;100.00
51460;BME280;37534;39.772;2.718;2024-02-21T02:37:35;102385.44;;;6.31;100.00
51460;BME280;37534;39.772;2.718;2024-02-21T02:40:01;102387.91;;;6.24;100.00
51460;BME280;37534;39.772;2.718;2024-02-21T02:42:26;102380.31;;;6.31;100.00
51460;BME280;37534;39.772;2.718;2024-02-21T02:44:52;102384.75;;;6.39;100.00
51460;BME280;37534;39.772;2.718;2024-02-21T02:47:17;102383.78;;;6.33;100.00
51460;BME280;37534;39.772;2.718;2024-02-21T02:49:43;102382.03;;;6.32;100.00
51460;BME280;37534;39.772;2.718;2024-02-21T02:52:09;102382.97;;;6.35;100.00
51460;BME280;37534;39.772;2.718;2024-02-21T02:54:34;102386.56;;;6.46;100.00
51460;BME280;37534;39.772;2.718;2024-02-21T02:57:00;102378.06;;;6.47;100.00
51460;BME280;37534;39.772;2.718;2024-02-21T02:59:25;102371.69;;;6.25;100.00
51460;BME280;37534;39.772;2.718;2024-02-21T03:01:51;102369.06;;;6.22;100.00
51460;BME280;37534;39.772;2.718;2024-02-21T03:04:16;102355.16;;;6.09;100.00
51460;BME280;37534;39.772;2.718;2024-02-21T03:06:42;102358.47;;;6.05;100.00
51460;BME280;37534;39.772;2.718;2024-02-21T03:09:07;102360.28;;;6.09;100.00
51460;BME280;37534;39.772;2.718;2024-02-21T03:11:34;102359.38;;;6.06;100.00
51460;BME280;37534;39.772;2.718;2024-02-21T03:13:59;102367.84;;;6.03;100.00
51460;BME280;37534;39.772;2.718;2024-02-21T03:16:25;102368.66;;;6.01;100.00
51460;BME280;37534;39.772;2.718;2024-02-21T03:18:50;102356.94;;;6.14;100.00
51460;BME280;37534;39.772;2.718;2024-02-21T03:21:16;102353.56;;;6.16;100.00
51460;BME280;37534;39.772;2.718;2024-02-21T03:23:41;102339.81;;;6.13;100.00
51460;BME280;37534;39.772;2.718;2024-02-21T03:26:07;102337.41;;;6.19;100.00
51460;BME280;37534;39.772;2.718;2024-02-21T03:28:32;102332.34;;;6.23;100.00
51460;BME280;37534;39.772;2.718;2024-02-21T03:30:58;102327.66;;;6.01;100.00
51460;BME280;37534;39.772;2.718;2024-02-21T03:33:23;102329.31;;;5.97;100.00
51460;BME280;37534;39.772;2.718;2024-02-21T03:35:49;102324.09;;;5.94;100.00
51460;BME280;37534;39.772;2.718;2024-02-21T03:38:14;102323.31;;;5.97;100.00
51460;BME280;37534;39.772;2.718;2024-02-21T03:40:40;102320.50;;;5.86;100.00
51460;BME280;37534;39.772;2.718;2024-02-21T03:43:05;102324.66;;;5.79;100.00
51460;BME280;37534;39.772;2.718;2024-02-21T03:45:31;102332.38;;;5.82;100.00
51460;BME280;37534;39.772;2.718;2024-02-21T03:47:56;102320.47;;;5.84;100.00
51460;BME280;37534;39.772;2.718;2024-02-21T03:50:22;102323.09;;;5.87;100.00
51460;BME280;37534;39.772;2.718;2024-02-21T03:52:47;102328.50;;;6.00;100.00
51460;BME280;37534;39.772;2.718;2024-02-21T03:55:13;102325.03;;;5.98;100.00
51460;BME280;37534;39.772;2.718;2024-02-21T03:57:38;102325.78;;;5.94;100.00
51460;BME280;37534;39.772;2.718;2024-02-21T04:00:05;102324.00;;;5.89;100.00
51460;BME280;37534;39.772;2.718;2024-02-21T04:02:31;102328.13;;;5.81;100.00
51460;BME280;37534;39.772;2.718;2024-02-21T04:04:56;102328.97;;;5.82;100.00
51460;BME280;37534;39.772;2.718;2024-02-21T04:07:22;102336.03;;;5.94;100.00
51460;BME280;37534;39.772;2.718;2024-02-21T04:09:47;102330.28;;;6.04;100.00
51460;BME280;37534;39.772;2.718;2024-02-21T04:12:13;102324.94;;;5.95;100.00
51460;BME280;37534;39.772;2.718;2024-02-21T04:14:38;102320.34;;;5.77;100.00
51460;BME280;37534;39.772;2.718;2024-02-21T04:17:04;102326.03;;;5.62;100.00
51460;BME280;37534;39.772;2.718;2024-02-21T04:19:31;102332.63;;;5.52;100.00
51460;BME280;37534;39.772;2.718;2024-02-21T04:21:56;102321.44;;;5.47;100.00
51460;BME280;37534;39.772;2.718;2024-02-21T04:24:21;102325.09;;;5.58;100.00
51460;BME280;37534;39.772;2.718;2024-02-21T04:26:47;102332.09;;;5.67;100.00
51460;BME280;37534;39.772;2.718;2024-02-21T04:29:12;102337.38;;;5.75;100.00
51460;BME280;37534;39.772;2.718;2024-02-21T04:31:38;102329.47;;;5.64;100.00
51460;BME280;37534;39.772;2.718;2024-02-21T04:34:06;102320.72;;;5.52;100.00
51460;BME280;37534;39.772;2.718;2024-02-21T04:36:31;102321.81;;;5.65;100.00
51460;BME280;37534;39.772;2.718;2024-02-21T04:38:58;102306.53;;;5.70;100.00
51460;BME280;37534;39.772;2.718;2024-02-21T04:41:24;102303.00;;;5.63;100.00
51460;BME280;37534;39.772;2.718;2024-02-21T04:43:49;102301.31;;;5.64;100.00
51460;BME280;37534;39.772;2.718;2024-02-21T04:46:15;102303.16;;;5.71;100.00
51460;BME280;37534;39.772;2.718;2024-02-21T04:48:41;102307.44;;;5.72;100.00
51460;BME280;37534;39.772;2.718;2024-02-21T04:51:06;102297.75;;;5.57;100.00
51460;BME280;37534;39.772;2.718;2024-02-21T04:53:32;102311.41;;;5.56;100.00
51460;BME280;37534;39.772;2.718;2024-02-21T04:55:57;102307.00;;;5.50;100.00
51460;BME280;37534;39.772;2.718;2024-02-21T04:58:23;102313.94;;;5.55;100.00
51460;BME280;37534;39.772;2.718;2024-02-21T05:00:49;102319.84;;;5.52;100.00
51460;BME280;37534;39.772;2.718;2024-02-21T05:03:14;102327.69;;;5.60;100.00
51460;BME280;37534;39.772;2.718;2024-02-21T05:05:40;102336.19;;;5.59;100.00
51460;BME280;37534;39.772;2.718;2024-02-21T05:08:05;102337.19;;;5.65;100.00
51460;BME280;37534;39.772;2.718;2024-02-21T05:10:31;102326.25;;;5.72;100.00
51460;BME280;37534;39.772;2.718;2024-02-21T05:12:57;102346.69;;;5.71;100.00
51460;BME280;37534;39.772;2.718;2024-02-21T05:15:23;102341.38;;;5.62;100.00
51460;BME280;37534;39.772;2.718;2024-02-21T05:17:49;102339.38;;;5.48;100.00
51460;BME280;37534;39.772;2.718;2024-02-21T05:20:14;102342.25;;;5.62;100.00
51460;BME280;37534;39.772;2.718;2024-02-21T05:22:40;102335.84;;;5.43;100.00
51460;BME280;37534;39.772;2.718;2024-02-21T05:25:06;102353.22;;;5.57;100.00
51460;BME280;37534;39.772;2.718;2024-02-21T05:27:31;102355.84;;;5.61;100.00
51460;BME280;37534;39.772;2.718;2024-02-21T05:29:57;102348.88;;;5.52;100.00
51460;BME280;37534;39.772;2.718;2024-02-21T05:32:23;102373.44;;;5.44;100.00
51460;BME280;37534;39.772;2.718;2024-02-21T05:34:49;102362.13;;;5.34;100.00
51460;BME280;37534;39.772;2.718;2024-02-21T05:37:16;102370.81;;;5.41;100.00
51460;BME280;37534;39.772;2.718;2024-02-21T05:39:41;102371.66;;;5.40;100.00
51460;BME280;37534;39.772;2.718;2024-02-21T05:42:07;102366.53;;;5.40;100.00
51460;BME280;37534;39.772;2.718;2024-02-21T05:44:32;102359.41;;;5.27;100.00
51460;BME280;37534;39.772;2.718;2024-02-21T05:46:58;102372.06;;;5.21;100.00
51460;BME280;37534;39.772;2.718;2024-02-21T05:49:23;102378.00;;;5.20;100.00
51460;BME280;37534;39.772;2.718;2024-02-21T05:51:49;102388.63;;;5.37;100.00
51460;BME280;37534;39.772;2.718;2024-02-21T05:54:14;102392.31;;;5.49;100.00
51460;BME280;37534;39.772;2.718;2024-02-21T05:56:44;102387.28;;;5.52;100.00
51460;BME280;37534;39.772;2.718;2024-02-21T05:59:09;102398.75;;;5.32;100.00
51460;BME280;37534;39.772;2.718;2024-02-21T06:01:35;102407.91;;;5.22;100.00
51460;BME280;37534;39.772;2.718;2024-02-21T06:04:00;102400.78;;;5.09;100.00
51460;BME280;37534;39.772;2.718;2024-02-21T06:06:26;102398.25;;;5.10;100.00
51460;BME280;37534;39.772;2.718;2024-02-21T06:08:51;102406.72;;;5.06;100.00
51460;BME280;37534;39.772;2.718;2024-02-21T06:11:17;102412.72;;;5.08;100.00
51460;BME280;37534;39.772;2.718;2024-02-21T06:13:42;102414.69;;;5.20;100.00
51460;BME280;37534;39.772;2.718;2024-02-21T06:16:08;102407.72;;;5.14;100.00
51460;BME280;37534;39.772;2.718;2024-02-21T06:18:35;102417.06;;;5.12;100.00
51460;BME280;37534;39.772;2.718;2024-02-21T06:21:01;102422.19;;;5.12;100.00
51460;BME280;37534;39.772;2.718;2024-02-21T06:23:27;102409.28;;;5.08;100.00
51460;BME280;37534;39.772;2.718;2024-02-21T06:25:52;102393.66;;;4.97;100.00
51460;BME280;37534;39.772;2.718;2024-02-21T06:28:18;102399.69;;;4.99;100.00
51460;BME280;37534;39.772;2.718;2024-02-21T06:30:43;102411.13;;;5.13;100.00
51460;BME280;37534;39.772;2.718;2024-02-21T06:33:09;102418.81;;;5.13;100.00
51460;BME280;37534;39.772;2.718;2024-02-21T06:35:34;102404.03;;;5.02;100.00
51460;BME280;37534;39.772;2.718;2024-02-21T06:38:00;102411.03;;;5.09;100.00
51460;BME280;37534;39.772;2.718;2024-02-21T06:40:25;102421.38;;;5.13;100.00
51460;BME280;37534;39.772;2.718;2024-02-21T06:42:51;102420.31;;;5.05;100.00
51460;BME280;37534;39.772;2.718;2024-02-21T06:45:17;102418.72;;;5.10;100.00
51460;BME280;37534;39.772;2.718;2024-02-21T06:47:43;102420.44;;;5.11;100.00
51460;BME280;37534;39.772;2.718;2024-02-21T06:50:09;102429.69;;;5.05;100.00
51460;BME280;37534;39.772;2.718;2024-02-21T06:52:36;102427.88;;;5.01;100.00
51460;BME280;37534;39.772;2.718;2024-02-21T06:55:01;102425.25;;;4.99;100.00
51460;BME280;37534;39.772;2.718;2024-02-21T06:57:28;102419.38;;;5.02;100.00
51460;BME280;37534;39.772;2.718;2024-02-21T06:59:54;102418.50;;;5.01;100.00
51460;BME280;37534;39.772;2.718;2024-02-21T07:02:19;102418.50;;;5.01;100.00
51460;BME280;37534;39.772;2.718;2024-02-21T07:04:45;102416.56;;;5.26;100.00
51460;BME280;37534;39.772;2.718;2024-02-21T07:07:10;102398.50;;;5.21;100.00
51460;BME280;37534;39.772;2.718;2024-02-21T07:09:36;102418.50;;;5.38;100.00
51460;BME280;37534;39.772;2.718;2024-02-21T07:12:01;102419.63;;;5.50;100.00
51460;BME280;37534;39.772;2.718;2024-02-21T07:14:32;102412.72;;;5.46;100.00
51460;BME280;37534;39.772;2.718;2024-02-21T07:17:01;102410.78;;;5.36;100.00
51460;BME280;37534;39.772;2.718;2024-02-21T07:19:26;102410.66;;;5.30;100.00
51460;BME280;37534;39.772;2.718;2024-02-21T07:21:52;102407.03;;;5.22;100.00
51460;BME280;37534;39.772;2.718;2024-02-21T07:24:18;102411.47;;;5.29;100.00
51460;BME280;37534;39.772;2.718;2024-02-21T07:26:43;102404.94;;;5.40;100.00
51460;BME280;37534;39.772;2.718;2024-02-21T07:29:09;102403.34;;;5.47;100.00
51460;BME280;37534;39.772;2.718;2024-02-21T07:31:44;102425.91;;;5.63;100.00
51460;BME280;37534;39.772;2.718;2024-02-21T07:34:10;102428.56;;;5.68;100.00
51460;BME280;37534;39.772;2.718;2024-02-21T07:36:36;102428.00;;;5.81;100.00
51460;BME280;37534;39.772;2.718;2024-02-21T07:39:04;102420.44;;;5.87;100.00
51460;BME280;37534;39.772;2.718;2024-02-21T07:41:30;102434.09;;;5.86;100.00
51460;BME280;37534;39.772;2.718;2024-02-21T07:43:56;102440.75;;;5.78;100.00
51460;BME280;37534;39.772;2.718;2024-02-21T07:46:22;102446.34;;;6.00;100.00
51460;BME280;37534;39.772;2.718;2024-02-21T07:48:48;102433.78;;;6.12;100.00
51460;BME280;37534;39.772;2.718;2024-02-21T07:51:13;102433.91;;;6.17;100.00
51460;BME280;37534;39.772;2.718;2024-02-21T07:53:39;102445.06;;;6.20;100.00
51460;BME280;37534;39.772;2.718;2024-02-21T07:56:10;102446.78;;;6.21;100.00
51460;BME280;37534;39.772;2.718;2024-02-21T07:58:36;102444.25;;;6.23;100.00
51460;BME280;37534;39.772;2.718;2024-02-21T08:01:01;102452.75;;;6.20;100.00
51460;BME280;37534;39.772;2.718;2024-02-21T08:03:27;102447.59;;;6.19;100.00
51460;BME280;37534;39.772;2.718;2024-02-21T08:05:52;102467.78;;;6.46;100.00
51460;BME280;37534;39.772;2.718;2024-02-21T08:08:18;102464.38;;;6.47;100.00
51460;BME280;37534;39.772;2.718;2024-02-21T08:10:46;102463.00;;;6.64;100.00
51460;BME280;37534;39.772;2.718;2024-02-21T08:13:11;102467.59;;;6.82;100.00
51460;BME280;37534;39.772;2.718;2024-02-21T08:15:37;102456.47;;;7.95;100.00
51460;BME280;37534;39.772;2.718;2024-02-21T08:18:05;102468.50;;;9.89;100.00
51460;BME280;37534;39.772;2.718;2024-02-21T08:20:31;102469.63;;;11.70;100.00
51460;BME280;37534;39.772;2.718;2024-02-21T08:22:57;102472.75;;;13.62;98.36
51460;BME280;37534;39.772;2.718;2024-02-21T08:25:22;102473.09;;;15.73;81.05
51460;BME280;37534;39.772;2.718;2024-02-21T08:27:48;102473.16;;;16.15;68.23
51460;BME280;37534;39.772;2.718;2024-02-21T08:30:14;102476.63;;;16.53;67.50
51460;BME280;37534;39.772;2.718;2024-02-21T08:32:39;102476.88;;;17.51;60.90
51460;BME280;37534;39.772;2.718;2024-02-21T08:35:05;102471.94;;;19.15;54.52
51460;BME280;37534;39.772;2.718;2024-02-21T08:37:31;102468.72;;;20.95;51.64
51460;BME280;37534;39.772;2.718;2024-02-21T08:39:56;102455.53;;;22.34;46.56
51460;BME280;37534;39.772;2.718;2024-02-21T08:42:22;102448.72;;;23.52;43.90
51460;BME280;37534;39.772;2.718;2024-02-21T08:44:47;102447.25;;;24.43;40.23
51460;BME280;37534;39.772;2.718;2024-02-21T08:47:13;102447.44;;;25.15;39.29
51460;BME280;37534;39.772;2.718;2024-02-21T08:49:39;102448.78;;;25.94;37.63
51460;BME280;37534;39.772;2.718;2024-02-21T08:52:04;102435.88;;;26.57;35.32
51460;BME280;37534;39.772;2.718;2024-02-21T08:54:31;102440.53;;;27.06;35.13
51460;BME280;37534;39.772;2.718;2024-02-21T08:56:58;102442.88;;;27.86;34.27
51460;BME280;37534;39.772;2.718;2024-02-21T08:59:23;102438.06;;;28.29;32.23
51460;BME280;37534;39.772;2.718;2024-02-21T09:01:50;102450.53;;;28.39;31.54
51460;BME280;37534;39.772;2.718;2024-02-21T09:04:17;102445.03;;;28.30;31.27
51460;BME280;37534;39.772;2.718;2024-02-21T09:06:43;102446.75;;;29.01;31.06
51460;BME280;37534;39.772;2.718;2024-02-21T09:09:09;102463.19;;;29.86;30.53
51460;BME280;37534;39.772;2.718;2024-02-21T09:11:35;102460.97;;;30.02;29.97
51460;BME280;37534;39.772;2.718;2024-02-21T09:14:00;102448.72;;;30.55;29.15
51460;BME280;37534;39.772;2.718;2024-02-21T09:16:26;102455.78;;;31.07;28.27
51460;BME280;37534;39.772;2.718;2024-02-21T09:18:51;102445.47;;;31.24;27.55
51460;BME280;37534;39.772;2.718;2024-02-21T09:21:18;102449.97;;;31.23;27.29
51460;BME280;37534;39.772;2.718;2024-02-21T09:23:44;102440.72;;;31.27;26.86
51460;BME280;37534;39.772;2.718;2024-02-21T09:26:10;102441.91;;;31.14;26.02
51460;BME280;37534;39.772;2.718;2024-02-21T09:28:39;102438.19;;;30.74;26.56
51460;BME280;37534;39.772;2.718;2024-02-21T09:31:04;102436.00;;;28.56;26.82
51460;BME280;37534;39.772;2.718;2024-02-21T09:33:30;102431.56;;;28.57;26.76
51460;BME280;37534;39.772;2.718;2024-02-21T09:35:55;102437.28;;;28.51;27.84
51460;BME280;37534;39.772;2.718;2024-02-21T09:38:21;102435.34;;;28.88;27.34
51460;BME280;37534;39.772;2.718;2024-02-21T09:40:47;102435.91;;;29.16;26.95
51460;BME280;37534;39.772;2.718;2024-02-21T09:43:17;102431.19;;;29.53;27.13
51460;BME280;37534;39.772;2.718;2024-02-21T09:45:46;102436.88;;;29.15;27.25
51460;BME280;37534;39.772;2.718;2024-02-21T09:48:30;102430.44;;;29.63;25.91
51460;BME280;37534;39.772;2.718;2024-02-21T09:51:02;102442.44;;;30.12;26.17
51460;BME280;37534;39.772;2.718;2024-02-21T09:53:28;102442.25;;;31.20;25.15
51460;BME280;37534;39.772;2.718;2024-02-21T09:55:56;102443.47;;;32.17;24.54
51460;BME280;37534;39.772;2.718;2024-02-21T09:58:23;102437.72;;;33.18;24.10
51460;BME280;37534;39.772;2.718;2024-02-21T10:00:49;102422.91;;;33.51;23.77
51460;BME280;37534;39.772;2.718;2024-02-21T10:03:14;102405.47;;;32.72;22.76
51460;BME280;37534;39.772;2.718;2024-02-21T10:05:47;102418.38;;;33.51;21.94
51460;BME280;37534;39.772;2.718;2024-02-21T10:08:14;102409.03;;;33.00;22.40
51460;BME280;37534;39.772;2.718;2024-02-21T10:10:45;102401.63;;;32.08;23.07
51460;BME280;37534;39.772;2.718;2024-02-21T10:13:21;102407.19;;;31.35;24.11
51460;BME280;37534;39.772;2.718;2024-02-21T10:15:47;102396.09;;;31.80;23.95
51460;BME280;37534;39.772;2.718;2024-02-21T10:18:17;102398.97;;;32.84;22.87
51460;BME280;37534;39.772;2.718;2024-02-21T10:20:43;102406.31;;;32.72;21.72
51460;BME280;37534;39.772;2.718;2024-02-21T10:23:09;102404.53;;;33.66;20.88
51460;BME280;37534;39.772;2.718;2024-02-21T10:25:35;102409.44;;;34.24;21.24
51460;BME280;37534;39.772;2.718;2024-02-21T10:28:04;102397.63;;;34.17;20.79
51460;BME280;37534;39.772;2.718;2024-02-21T10:30:29;102411.31;;;34.32;20.55
51460;BME280;37534;39.772;2.718;2024-02-21T10:32:56;102408.06;;;34.46;20.11
51460;BME280;37534;39.772;2.718;2024-02-21T10:35:30;102406.91;;;33.13;20.87
51460;BME280;37534;39.772;2.718;2024-02-21T10:37:56;102407.81;;;34.14;21.02
51460;BME280;37534;39.772;2.718;2024-02-21T10:40:27;102413.63;;;33.45;21.07
51460;BME280;37534;39.772;2.718;2024-02-21T10:43:00;102410.00;;;32.71;21.16
51460;BME280;37534;39.772;2.718;2024-02-21T10:45:30;102395.84;;;31.33;22.05
51460;BME280;37534;39.772;2.718;2024-02-21T10:48:22;102404.06;;;30.68;22.34
51460;BME280;37534;39.772;2.718;2024-02-21T10:50:57;102401.16;;;29.74;23.53
51460;BME280;37534;39.772;2.718;2024-02-21T10:56:29;102387.31;;;33.23;20.85
51460;BME280;37534;39.772;2.718;2024-02-21T10:58:57;102378.59;;;33.84;21.07
51460;BME280;37534;39.772;2.718;2024-02-21T11:01:23;102376.78;;;35.08;19.76
51460;BME280;37534;39.772;2.718;2024-02-21T11:03:52;102371.88;;;35.62;19.64
51460;BME280;37534;39.772;2.718;2024-02-21T11:06:20;102371.97;;;35.78;19.13
51460;BME280;37534;39.772;2.718;2024-02-21T11:08:47;102377.97;;;36.46;19.02
51460;BME280;37534;39.772;2.718;2024-02-21T11:11:13;102367.06;;;36.48;18.42
51460;BME280;37534;39.772;2.718;2024-02-21T11:13:43;102365.78;;;36.67;18.29
51460;BME280;37534;39.772;2.718;2024-02-21T11:16:21;102362.78;;;37.18;18.37
51460;BME280;37534;39.772;2.718;2024-02-21T11:18:47;102363.91;;;36.92;18.31
51460;BME280;37534;39.772;2.718;2024-02-21T11:21:12;102352.72;;;37.12;17.84
51460;BME280;37534;39.772;2.718;2024-02-21T11:23:38;102351.81;;;35.74;19.45
51460;BME280;37534;39.772;2.718;2024-02-21T11:26:19;102349.06;;;37.04;19.77
51460;BME280;37534;39.772;2.718;2024-02-21T11:28:58;102340.28;;;37.65;20.27
51460;BME280;37534;39.772;2.718;2024-02-21T11:31:25;102326.56;;;38.42;19.59
51460;BME280;37534;39.772;2.718;2024-02-21T11:33:52;102324.56;;;38.59;19.72
51460;BME280;37534;39.772;2.718;2024-02-21T11:36:27;102317.00;;;38.85;18.77
51460;BME280;37534;39.772;2.718;2024-02-21T11:38:53;102322.16;;;39.01;18.94
51460;BME280;37534;39.772;2.718;2024-02-21T11:41:19;102317.63;;;38.87;20.26
51460;BME280;37534;39.772;2.718;2024-02-21T11:43:50;102314.19;;;38.93;20.63
51460;BME280;37534;39.772;2.718;2024-02-21T11:46:16;102320.97;;;39.04;21.03
51460;BME280;37534;39.772;2.718;2024-02-21T11:48:42;102316.47;;;38.59;20.95
51460;BME280;37534;39.772;2.718;2024-02-21T11:51:21;102312.03;;;37.99;21.35
51460;BME280;37534;39.772;2.718;2024-02-21T11:53:47;102313.50;;;38.39;21.15
51460;BME280;37534;39.772;2.718;2024-02-21T11:56:14;102294.91;;;35.95;22.01
51460;BME280;37534;39.772;2.718;2024-02-21T11:58:39;102302.41;;;36.16;22.92
51460;BME280;37534;39.772;2.718;2024-02-21T12:01:05;102312.31;;;34.22;23.70
51460;BME280;37534;39.772;2.718;2024-02-21T12:03:32;102311.50;;;34.56;23.66
51460;BME280;37534;39.772;2.718;2024-02-21T12:05:59;102320.38;;;33.05;26.16
51460;BME280;37534;39.772;2.718;2024-02-21T12:08:25;102319.97;;;33.45;25.88
51460;BME280;37534;39.772;2.718;2024-02-21T12:10:50;102310.47;;;34.83;25.44
51460;BME280;37534;39.772;2.718;2024-02-21T12:13:22;102315.03;;;35.50;24.58
51460;BME280;37534;39.772;2.718;2024-02-21T12:15:48;102312.69;;;34.96;24.56
51460;BME280;37534;39.772;2.718;2024-02-21T12:18:16;102311.03;;;35.71;23.50
51460;BME280;37534;39.772;2.718;2024-02-21T12:20:42;102311.44;;;36.40;23.53
51460;BME280;37534;39.772;2.718;2024-02-21T12:23:10;102291.63;;;36.49;23.25
51460;BME280;37534;39.772;2.718;2024-02-21T12:25:36;102289.94;;;36.40;23.53
51460;BME280;37534;39.772;2.718;2024-02-21T12:28:02;102285.63;;;36.14;24.01
51460;BME280;37534;39.772;2.718;2024-02-21T12:30:29;102272.91;;;36.56;23.64
51460;BME280;37534;39.772;2.718;2024-02-21T12:32:56;102275.00;;;37.40;23.03
51460;BME280;37534;39.772;2.718;2024-02-21T12:35:23;102261.53;;;35.57;24.24
51460;BME280;37534;39.772;2.718;2024-02-21T12:37:48;102270.72;;;36.68;22.90
51460;BME280;37534;39.772;2.718;2024-02-21T12:40:14;102254.25;;;35.16;23.08
51460;BME280;37534;39.772;2.718;2024-02-21T12:42:40;102242.03;;;34.28;23.17
51460;BME280;37534;39.772;2.718;2024-02-21T12:45:05;102241.28;;;31.99;24.99
51460;BME280;37534;39.772;2.718;2024-02-21T12:47:31;102228.38;;;30.66;25.94
51460;BME280;37534;39.772;2.718;2024-02-21T12:49:57;102222.09;;;28.97;27.28